createdAt,value
2023-10-06T03:45:30.349Z,11.38
2023-10-06T03:48:09.559Z,8.80
2023-10-06T03:50:43.879Z,11.27
2023-10-06T03:53:14.185Z,8.57
2023-10-06T03:55:42.077Z,10.32
2023-10-06T03:58:10.151Z,10.10
2023-10-06T04:00:41.457Z,11.07
2023-10-06T04:03:14.997Z,9.57
2023-10-06T04:08:10.072Z,9.77
2023-10-06T04:10:38.555Z,9.85
2023-10-06T04:13:08.866Z,11.45
2023-10-06T04:15:50.108Z,9.85
2023-10-06T04:18:22.990Z,11.65
2023-10-06T04:20:51.640Z,10.38
2023-10-06T04:23:19.443Z,10.40
2023-10-06T04:25:47.094Z,10.55
2023-10-06T04:28:15.863Z,14.10
2023-10-06T04:30:44.239Z,9.95
2023-10-06T04:33:15.312Z,10.77
2023-10-06T04:35:48.941Z,10.13
2023-10-06T04:40:42.804Z,11.82
2023-10-06T04:43:10.733Z,8.77
2023-10-06T04:45:39.873Z,10.43
2023-10-06T04:48:10.621Z,11.23
2023-10-06T04:50:37.969Z,12.13
2023-10-06T04:53:07.172Z,9.82
2023-10-06T04:55:38.935Z,9.57
2023-10-06T04:58:08.912Z,11.18
2023-10-06T05:00:35.693Z,9.52
2023-10-06T05:03:06.016Z,10.35
2023-10-06T05:05:37.007Z,9.57
2023-10-06T05:08:03.903Z,11.25
2023-10-06T05:10:31.577Z,14.23
2023-10-06T05:13:03.138Z,11.73
2023-10-06T05:15:31.383Z,11.52
2023-10-06T05:17:59.873Z,11.90
2023-10-06T05:20:30.871Z,11.20
2023-10-06T05:23:10.580Z,12.35
2023-10-06T05:25:37.887Z,9.35
2023-10-06T05:28:05.527Z,12.30
2023-10-06T05:30:32.894Z,13.70
2023-10-06T05:33:01.084Z,10.55
2023-10-06T05:35:30.187Z,11.55
2023-10-06T05:37:58.712Z,11.02
2023-10-06T05:40:26.499Z,11.25
2023-10-06T05:42:53.309Z,11.82
2023-10-06T05:45:21.003Z,10.95
2023-10-06T05:47:51.680Z,9.38
2023-10-06T05:50:29.466Z,10.60
2023-10-06T05:53:00.424Z,11.93
2023-10-06T05:55:31.668Z,10.73
2023-10-06T05:58:01.306Z,11.40
2023-10-06T06:00:32.533Z,12.38
2023-10-06T06:03:07.844Z,11.70
2023-10-06T06:05:37.244Z,13.45
2023-10-06T06:08:10.012Z,12.55
2023-10-06T06:10:37.539Z,12.32
2023-10-06T06:13:05.318Z,13.13
2023-10-06T06:15:32.733Z,12.63
2023-10-06T06:18:00.222Z,10.77
2023-10-06T06:20:27.193Z,10.05
2023-10-06T06:23:00.519Z,11.40
2023-10-06T06:25:27.576Z,9.13
2023-10-06T06:27:55.389Z,11.70
2023-10-06T06:30:24.823Z,10.93
2023-10-06T06:32:54.084Z,14.32
2023-10-06T06:35:25.208Z,12.00
2023-10-06T06:38:02.556Z,9.75
2023-10-06T06:40:29.944Z,12.07
2023-10-06T06:42:56.953Z,14.93
2023-10-06T06:45:27.341Z,14.43
2023-10-06T06:47:54.398Z,11.50
2023-10-06T06:50:22.620Z,13.07
2023-10-06T06:52:52.148Z,10.93
2023-10-06T06:55:21.323Z,18.25
2023-10-06T06:57:55.976Z,10.27
2023-10-06T07:00:24.005Z,9.15
2023-10-06T07:02:51.808Z,13.55
2023-10-06T07:05:20.568Z,10.45
2023-10-06T07:07:50.223Z,10.95
2023-10-06T07:10:21.921Z,13.60
2023-10-06T07:12:49.645Z,11.80
2023-10-06T07:15:17.274Z,15.38
2023-10-06T07:17:48.200Z,13.07
2023-10-06T07:20:20.290Z,10.55
2023-10-06T07:22:48.103Z,9.35
2023-10-06T07:25:19.071Z,10.85
2023-10-06T07:27:50.659Z,11.25
2023-10-06T07:30:17.845Z,11.52
2023-10-06T07:32:45.878Z,10.63
2023-10-06T07:35:14.940Z,11.77
2023-10-06T07:37:51.156Z,7.55
2023-10-06T07:40:22.454Z,10.48
2023-10-06T07:42:51.157Z,8.90
2023-10-06T07:45:19.225Z,8.73
2023-10-06T07:47:46.880Z,8.93
2023-10-06T07:50:16.527Z,9.10
2023-10-06T07:52:44.362Z,9.55
2023-10-06T07:55:13.009Z,9.48
2023-10-06T07:57:46.587Z,10.07
2023-10-06T08:00:25.194Z,8.98
2023-10-06T08:02:51.844Z,8.77
2023-10-06T08:05:20.796Z,8.25
2023-10-06T08:07:47.565Z,9.52
2023-10-06T08:10:19.626Z,12.18
2023-10-06T08:12:51.251Z,11.02
2023-10-06T08:15:19.212Z,9.95
2023-10-06T08:17:46.904Z,8.48
2023-10-06T08:20:16.354Z,10.88
2023-10-06T08:22:47.761Z,8.38
2023-10-06T08:25:19.532Z,8.45
2023-10-06T08:27:47.860Z,12.70
2023-10-06T08:30:20.259Z,9.82
2023-10-06T08:32:49.142Z,10.02
2023-10-06T08:35:16.471Z,9.70
2023-10-06T08:37:47.905Z,9.30
2023-10-06T08:40:20.348Z,10.45
2023-10-06T08:42:48.336Z,9.35
2023-10-06T08:45:21.517Z,9.82
2023-10-06T08:48:01.554Z,9.27
2023-10-06T08:50:31.669Z,9.40
2023-10-06T08:52:59.884Z,11.70
2023-10-06T08:55:29.062Z,12.57
2023-10-06T08:57:56.497Z,10.70
2023-10-06T09:00:25.620Z,11.75
2023-10-06T09:02:55.801Z,12.05
2023-10-06T09:05:23.308Z,9.73
2023-10-06T09:08:00.305Z,11.48
2023-10-06T09:10:30.507Z,9.55
2023-10-06T09:13:02.500Z,11.25
2023-10-06T09:15:30.375Z,10.13
2023-10-06T09:17:58.670Z,9.07
2023-10-06T09:20:38.444Z,10.48
2023-10-06T09:23:05.618Z,10.95
2023-10-06T09:25:47.370Z,8.40
2023-10-06T09:28:15.224Z,10.68
2023-10-06T09:30:57.444Z,10.55
2023-10-06T09:33:50.544Z,7.95
2023-10-06T09:36:36.274Z,8.38
2023-10-06T09:39:15.215Z,9.45
2023-10-06T09:41:43.161Z,10.35
2023-10-06T09:44:13.465Z,9.30
2023-10-06T09:46:44.700Z,9.30
2023-10-06T09:49:17.585Z,10.02
2023-10-06T09:51:45.139Z,13.18
2023-10-06T09:54:13.149Z,9.98
2023-10-06T09:56:43.349Z,8.82
2023-10-06T09:59:14.686Z,10.20
2023-10-06T10:01:46.897Z,9.77
2023-10-06T10:06:44.853Z,9.38
2023-10-06T10:09:23.554Z,8.90
2023-10-06T10:12:28.287Z,8.80
2023-10-06T10:15:22.799Z,9.27
2023-10-06T10:18:14.784Z,10.02
2023-10-06T10:20:41.866Z,10.05
2023-10-06T10:23:15.737Z,8.10
2023-10-06T10:25:42.557Z,9.73
2023-10-06T10:28:20.573Z,9.05
2023-10-06T10:31:01.406Z,11.10
2023-10-06T10:33:30.938Z,8.73
2023-10-06T10:36:16.329Z,10.73
2023-10-06T10:38:43.363Z,8.82
2023-10-06T10:41:17.448Z,8.60
2023-10-06T10:43:50.128Z,11.48
2023-10-06T10:46:34.714Z,11.45
2023-10-06T10:49:02.669Z,10.13
2023-10-06T10:51:34.312Z,10.93
2023-10-06T10:54:01.680Z,11.05
2023-10-06T10:56:39.507Z,9.73
2023-10-06T10:59:06.527Z,13.15
2023-10-06T11:01:37.095Z,13.18
2023-10-06T11:04:30.167Z,11.90
2023-10-06T11:06:59.323Z,9.93
2023-10-06T11:09:27.419Z,9.65
2023-10-06T11:12:20.148Z,12.70
2023-10-06T11:14:47.465Z,12.65
2023-10-06T11:17:14.375Z,10.50
2023-10-06T11:19:41.745Z,10.73
2023-10-06T11:22:23.536Z,12.18
2023-10-06T11:24:51.925Z,13.67
2023-10-06T11:27:25.145Z,11.68
2023-10-06T11:29:58.296Z,11.23
2023-10-06T11:32:25.308Z,9.70
2023-10-06T11:34:52.500Z,10.32
2023-10-06T11:37:25.281Z,11.55
2023-10-06T11:39:58.315Z,12.15
2023-10-06T11:44:57.808Z,9.73
2023-10-06T11:47:27.477Z,7.82
2023-10-06T11:49:57.204Z,10.18
2023-10-06T11:52:25.139Z,12.95
2023-10-06T11:54:52.794Z,9.82
2023-10-06T11:57:22.743Z,10.40
2023-10-06T11:59:54.569Z,7.43
2023-10-06T12:02:22.868Z,7.75
2023-10-06T12:04:49.794Z,7.05
2023-10-06T12:07:25.516Z,8.50
2023-10-06T12:09:53.268Z,7.45
2023-10-06T12:12:19.894Z,7.22
2023-10-06T12:14:46.820Z,8.13
2023-10-06T12:17:16.048Z,6.85
2023-10-06T12:19:43.289Z,8.43
2023-10-06T12:22:14.380Z,8.15
2023-10-06T12:24:41.731Z,8.98
2023-10-06T12:27:10.639Z,7.63
2023-10-06T12:29:37.344Z,6.97
2023-10-06T12:32:05.457Z,7.10
2023-10-06T12:34:32.793Z,6.10
2023-10-06T12:37:03.245Z,7.75
2023-10-06T12:39:36.382Z,8.25
2023-10-06T12:42:05.164Z,10.45
2023-10-06T12:44:32.238Z,6.38
2023-10-06T12:47:04.646Z,9.13
2023-10-06T12:49:31.824Z,6.18
2023-10-06T12:51:59.659Z,6.95
2023-10-06T12:54:27.044Z,7.95
2023-10-06T12:56:53.978Z,10.10
2023-10-06T12:59:20.846Z,6.85
2023-10-06T13:01:50.193Z,8.77
2023-10-06T13:04:17.174Z,6.35
2023-10-06T13:06:44.086Z,6.75
2023-10-06T13:09:18.497Z,8.07
2023-10-06T13:11:45.314Z,7.47
2023-10-06T13:14:16.351Z,6.88
2023-10-06T13:16:49.666Z,8.15
2023-10-06T13:19:16.350Z,8.02
2023-10-06T13:21:43.994Z,9.43
2023-10-06T13:24:11.032Z,7.18
2023-10-06T13:26:43.843Z,6.28
2023-10-06T13:29:11.264Z,5.68
2023-10-06T13:31:38.362Z,6.30
2023-10-06T13:34:05.499Z,6.35
2023-10-06T13:36:32.622Z,6.18
2023-10-06T13:38:59.454Z,6.80
2023-10-06T13:41:27.685Z,6.68
2023-10-06T13:43:55.299Z,6.47
2023-10-06T13:46:22.193Z,6.35
2023-10-06T13:48:48.964Z,6.07
2023-10-06T13:51:16.391Z,6.75
2023-10-06T13:53:44.379Z,5.50
2023-10-06T13:56:12.084Z,6.18
2023-10-06T13:58:38.854Z,5.45
2023-10-06T14:01:05.710Z,5.07
2023-10-06T14:03:32.694Z,5.82
2023-10-06T14:06:01.703Z,7.75
2023-10-06T14:08:29.999Z,5.38
2023-10-06T14:10:59.904Z,5.40
2023-10-06T14:13:28.839Z,6.80
2023-10-06T14:15:56.256Z,7.10
2023-10-06T14:18:27.742Z,5.53
2023-10-06T14:20:59.257Z,5.05
2023-10-06T14:23:31.015Z,5.95
2023-10-06T14:26:01.841Z,6.13
2023-10-06T14:28:29.687Z,6.55
2023-10-06T14:31:06.743Z,5.85
2023-10-06T14:33:46.083Z,6.00
2023-10-06T14:36:15.578Z,6.10
2023-10-06T14:38:45.107Z,6.63
2023-10-06T14:41:35.205Z,5.30
2023-10-06T14:44:22.381Z,5.70
2023-10-06T14:46:51.900Z,6.20
2023-10-06T14:49:27.715Z,6.40
2023-10-06T14:51:57.454Z,8.10
2023-10-06T14:54:32.605Z,6.72
2023-10-06T14:57:00.763Z,7.60
2023-10-06T14:59:32.386Z,5.57
2023-10-06T15:02:04.721Z,5.82
2023-10-06T15:04:31.662Z,6.22
2023-10-06T15:06:58.548Z,5.47
2023-10-06T15:09:27.631Z,5.63
2023-10-06T15:11:54.290Z,6.28
2023-10-06T15:14:26.302Z,5.80
2023-10-06T15:16:54.304Z,7.00
2023-10-06T15:19:26.229Z,5.80
2023-10-06T15:21:53.971Z,7.72
2023-10-06T15:24:20.785Z,5.97
2023-10-06T15:26:48.804Z,5.75
2023-10-06T15:29:20.805Z,6.65
2023-10-06T15:31:51.355Z,6.47
2023-10-06T15:34:18.999Z,7.38
2023-10-06T15:36:46.086Z,6.95
2023-10-06T15:39:19.714Z,5.30
2023-10-06T15:41:47.822Z,8.68
2023-10-06T15:44:15.871Z,8.65
2023-10-06T15:46:43.721Z,7.45
2023-10-06T15:49:16.431Z,6.35
2023-10-06T15:51:47.885Z,6.57
2023-10-06T15:54:14.698Z,8.85
2023-10-06T15:56:41.673Z,7.70
2023-10-06T15:59:16.173Z,6.72
2023-10-06T16:01:44.657Z,8.48
2023-10-06T16:04:14.278Z,6.50
2023-10-06T16:06:43.904Z,8.70
2023-10-06T16:09:11.403Z,7.10
2023-10-06T16:11:41.225Z,8.48
2023-10-06T16:14:08.167Z,10.63
2023-10-06T16:16:37.610Z,8.40
2023-10-06T16:19:05.254Z,8.77
2023-10-06T16:21:35.282Z,8.57
2023-10-06T16:24:06.223Z,8.35
2023-10-06T16:26:33.562Z,7.97
2023-10-06T16:29:00.779Z,9.10
2023-10-06T16:31:28.566Z,7.53
2023-10-06T16:33:55.394Z,8.85
2023-10-06T16:36:23.604Z,7.35
2023-10-06T16:38:52.097Z,6.95
2023-10-06T16:41:24.759Z,8.45
2023-10-06T16:43:58.665Z,7.10
2023-10-06T16:46:26.501Z,6.40
2023-10-06T16:48:53.688Z,9.45
2023-10-06T16:51:21.348Z,8.85
2023-10-06T16:53:49.555Z,7.25
2023-10-06T16:56:17.237Z,9.05
2023-10-06T16:58:44.193Z,7.43
2023-10-06T17:01:11.133Z,8.85
2023-10-06T17:03:38.491Z,11.57
2023-10-06T17:06:07.449Z,9.45
2023-10-06T17:08:34.622Z,9.57
2023-10-06T17:11:12.911Z,7.65
2023-10-06T17:13:39.653Z,10.00
2023-10-06T17:16:06.543Z,13.40
2023-10-06T17:18:35.023Z,8.57
2023-10-06T17:21:01.760Z,6.97
2023-10-06T17:23:30.194Z,7.15
2023-10-06T17:25:58.275Z,7.10
2023-10-06T17:28:25.327Z,7.75
2023-10-06T17:30:53.135Z,7.43
2023-10-06T17:33:20.350Z,6.60
2023-10-06T17:35:47.555Z,8.40
2023-10-06T17:38:14.722Z,7.20
2023-10-06T17:40:41.430Z,6.57
2023-10-06T17:43:08.529Z,6.75
2023-10-06T17:45:38.989Z,7.78
2023-10-06T17:48:07.362Z,7.90
2023-10-06T17:50:34.891Z,8.23
2023-10-06T17:53:01.636Z,6.30
2023-10-06T17:55:33.832Z,7.07
2023-10-06T17:58:01.785Z,6.22
2023-10-06T18:00:28.673Z,7.20
2023-10-06T18:02:55.693Z,6.45
2023-10-06T18:05:24.791Z,6.93
2023-10-06T18:07:52.009Z,7.82
2023-10-06T18:10:19.418Z,6.45
2023-10-06T18:12:46.247Z,6.72
2023-10-06T18:15:12.937Z,7.22
2023-10-06T18:17:39.720Z,11.57
2023-10-06T18:20:09.530Z,7.18
2023-10-06T18:22:38.115Z,6.82
2023-10-06T18:25:07.186Z,6.78
2023-10-06T18:27:34.355Z,6.80
2023-10-06T18:30:01.255Z,9.57
2023-10-06T18:32:29.789Z,7.53
2023-10-06T18:34:56.553Z,9.40
2023-10-06T18:37:23.354Z,8.63
2023-10-06T18:39:51.340Z,8.60
2023-10-06T18:42:18.061Z,8.00
2023-10-06T18:44:44.826Z,7.35
2023-10-06T18:47:11.667Z,9.27
2023-10-06T18:49:39.699Z,7.82
2023-10-06T18:52:06.544Z,9.32
2023-10-06T18:54:34.454Z,9.30
2023-10-06T18:57:01.161Z,9.02
2023-10-06T18:59:27.849Z,9.32
2023-10-06T19:01:54.801Z,7.25
2023-10-06T19:04:21.626Z,9.73
2023-10-06T19:06:48.290Z,7.65
2023-10-06T19:09:16.594Z,7.75
2023-10-06T19:11:43.661Z,8.40
2023-10-06T19:14:11.446Z,7.22
2023-10-06T19:16:38.528Z,9.05
2023-10-06T19:19:05.416Z,8.45
2023-10-06T19:21:32.609Z,8.15
2023-10-06T19:24:02.541Z,7.93
2023-10-06T19:26:29.344Z,7.05
2023-10-06T19:28:56.350Z,8.40
2023-10-06T19:31:23.268Z,9.02
2023-10-06T19:33:51.293Z,8.70
2023-10-06T19:36:20.514Z,7.50
2023-10-06T19:38:48.473Z,8.68
2023-10-06T19:41:16.089Z,10.40
2023-10-06T19:43:43.301Z,8.48
2023-10-06T19:46:11.495Z,8.93
2023-10-06T19:48:43.627Z,8.73
2023-10-06T19:51:11.561Z,8.55
2023-10-06T19:53:38.437Z,8.95
2023-10-06T19:56:06.032Z,8.77
2023-10-06T19:58:33.769Z,8.90
2023-10-06T20:01:01.027Z,9.18
2023-10-06T20:03:28.059Z,9.68
2023-10-06T20:05:56.997Z,8.73
2023-10-06T20:08:24.298Z,9.45
2023-10-06T20:10:55.582Z,9.05
2023-10-06T20:13:26.995Z,7.82
2023-10-06T20:15:54.481Z,8.27
2023-10-06T20:18:21.590Z,9.18
2023-10-06T20:20:48.404Z,8.95
2023-10-06T20:23:15.405Z,9.73
2023-10-06T20:25:42.553Z,10.30
2023-10-06T20:28:10.423Z,8.63
2023-10-06T20:30:42.575Z,8.18
2023-10-06T20:33:09.513Z,9.15
2023-10-06T20:35:36.675Z,8.90
2023-10-06T20:38:04.464Z,9.25
2023-10-06T20:40:33.919Z,10.38
2023-10-06T20:43:07.567Z,11.05
2023-10-06T20:45:34.748Z,6.90
2023-10-06T20:48:06.892Z,9.80
2023-10-06T20:50:39.586Z,7.45
2023-10-06T20:53:08.466Z,8.25
2023-10-06T20:55:35.867Z,8.70
2023-10-06T20:58:02.956Z,9.40
2023-10-06T21:00:30.849Z,6.97
2023-10-06T21:02:57.987Z,8.55
2023-10-06T21:05:25.125Z,8.73
2023-10-06T21:07:52.101Z,7.90
2023-10-06T21:10:19.485Z,8.90
2023-10-06T21:12:46.645Z,8.50
2023-10-06T21:15:15.486Z,10.05
2023-10-06T21:17:43.708Z,10.43
2023-10-06T21:20:13.499Z,8.20
2023-10-06T21:22:41.203Z,9.00
2023-10-06T21:25:13.520Z,8.15
2023-10-06T21:27:41.046Z,6.97
2023-10-06T21:30:08.876Z,7.82
2023-10-06T21:32:38.735Z,7.45
2023-10-06T21:35:08.503Z,8.85
2023-10-06T21:37:35.635Z,8.82
2023-10-06T21:40:02.787Z,7.38
2023-10-06T21:42:29.894Z,10.20
2023-10-06T21:44:56.934Z,6.70
2023-10-06T21:47:23.938Z,7.32
2023-10-06T21:49:50.799Z,7.68
2023-10-06T21:52:17.681Z,6.75
2023-10-06T21:54:44.440Z,7.15
2023-10-06T21:57:13.400Z,8.20
2023-10-06T21:59:42.488Z,8.18
2023-10-06T22:02:09.751Z,8.63
2023-10-06T22:04:37.593Z,8.57
2023-10-06T22:07:04.477Z,7.43
2023-10-06T22:09:31.373Z,6.55
2023-10-06T22:11:59.796Z,7.72
2023-10-06T22:14:28.923Z,8.65
2023-10-06T22:16:56.318Z,6.15
2023-10-06T22:19:23.314Z,5.93
2023-10-06T22:21:51.844Z,6.55
2023-10-06T22:24:18.730Z,6.88
2023-10-06T22:26:46.064Z,8.27
2023-10-06T22:29:13.211Z,7.60
2023-10-06T22:31:40.762Z,25.63
2023-10-06T22:34:07.676Z,9.63
2023-10-06T22:36:35.463Z,7.20
2023-10-06T22:39:02.255Z,8.38
2023-10-06T22:41:29.108Z,6.90
2023-10-06T22:43:55.927Z,7.97
2023-10-06T22:46:24.385Z,6.40
2023-10-06T22:48:51.309Z,6.85
2023-10-06T22:51:19.388Z,7.22
2023-10-06T22:53:46.160Z,8.00
2023-10-06T22:56:13.377Z,7.28
2023-10-06T22:58:40.232Z,7.55
2023-10-06T23:01:13.083Z,7.43
2023-10-06T23:03:40.017Z,6.18
2023-10-06T23:06:06.893Z,7.57
2023-10-06T23:08:33.681Z,8.60
2023-10-06T23:11:01.127Z,7.82
2023-10-06T23:13:29.623Z,7.60
2023-10-06T23:15:58.928Z,9.13
2023-10-06T23:18:25.846Z,8.07
2023-10-06T23:20:53.498Z,6.68
2023-10-06T23:23:20.700Z,7.32
2023-10-06T23:25:48.011Z,7.18
2023-10-06T23:28:15.373Z,7.82
